Time;durP1;ratioP1;P1;durP2;ratioP2;P2;SDS_P1;SDS_P2;PMS_P1;PMS_P2;Temp;Humidity;BMP_temperature;BMP_pressure;BME280_temperature;BME280_humidity;BME280_pressure;Samples;Min_cycle;Max_cycle;Signal;HPM_P1;HPM_P2
2023/04/19 00:00:35;;;;;;;23.23;14.67;;;;;;;8.62;82.83;102580.34;5075099;28;20016;-80
2023/04/19 00:03:01;;;;;;;23.57;14.93;;;;;;;8.65;82.51;102567.47;5075007;28;20025;-80
2023/04/19 00:05:30;;;;;;;22.50;14.97;;;;;;;8.75;82.06;102576.31;5075228;28;20012;-80
2023/04/19 00:07:55;;;;;;;22.55;14.50;;;;;;;8.71;82.46;102569.31;5074933;28;20093;-80
2023/04/19 00:10:20;;;;;;;22.60;14.63;;;;;;;8.74;82.60;102569.38;5074243;28;20499;-80
2023/04/19 00:12:46;;;;;;;21.30;13.10;;;;;;;8.76;82.10;102572.00;5074859;28;20136;-80
2023/04/19 00:15:11;;;;;;;22.07;14.23;;;;;;;8.77;82.24;102569.47;5075174;28;20559;-80
2023/04/19 00:17:36;;;;;;;22.80;14.20;;;;;;;8.79;82.17;102565.16;5073434;28;20073;-80
2023/04/19 00:20:03;;;;;;;25.63;15.73;;;;;;;8.83;82.00;102571.28;5074941;28;20016;-80
2023/04/19 00:22:28;;;;;;;23.50;14.25;;;;;;;8.85;81.94;102559.22;5074243;28;20087;-80
2023/04/19 00:24:54;;;;;;;22.77;14.33;;;;;;;8.86;81.79;102552.34;5074055;28;20255;-80
2023/04/19 00:27:19;;;;;;;22.80;15.03;;;;;;;8.91;81.94;102564.53;5090961;28;20549;-80
2023/04/19 00:29:44;;;;;;;23.60;15.13;;;;;;;8.94;81.57;102568.91;5094840;28;20028;-80
2023/04/19 00:32:10;;;;;;;21.57;13.30;;;;;;;8.94;81.87;102556.84;5093805;28;20078;-80
2023/04/19 00:34:36;;;;;;;22.13;14.33;;;;;;;8.95;81.88;102555.09;5089003;28;20047;-80
2023/04/19 00:37:03;;;;;;;23.13;15.00;;;;;;;8.90;81.79;102551.53;5074679;28;20024;-80
2023/04/19 00:39:28;;;;;;;23.67;14.70;;;;;;;8.99;81.67;102553.44;5073201;28;20023;-80
2023/04/19 00:41:56;;;;;;;21.80;13.80;;;;;;;8.98;81.61;102555.19;5074498;28;20123;-80
2023/04/19 00:44:21;;;;;;;22.80;14.18;;;;;;;9.00;81.49;102556.09;5073776;28;20013;-81
2023/04/19 00:46:47;;;;;;;22.20;13.40;;;;;;;9.00;81.55;102552.59;5073495;28;20031;-80
2023/04/19 00:49:12;;;;;;;23.43;14.90;;;;;;;8.99;81.86;102556.91;5074312;28;20063;-80
2023/04/19 00:51:37;;;;;;;21.90;13.80;;;;;;;9.02;81.79;102561.28;5073840;28;20104;-80
2023/04/19 00:54:03;;;;;;;22.33;13.40;;;;;;;8.92;81.93;102544.69;5073167;28;20481;-80
2023/04/19 00:56:29;;;;;;;21.80;13.97;;;;;;;8.99;82.08;102554.34;5073699;28;20024;-80
2023/04/19 00:58:55;;;;;;;21.75;12.95;;;;;;;9.01;82.19;102554.34;5074184;28;20025;-81
2023/04/19 01:01:27;;;;;;;22.08;13.82;;;;;;;9.01;82.11;102559.53;5072932;28;20028;-80
2023/04/19 01:03:53;;;;;;;21.33;12.50;;;;;;;9.02;82.51;102556.09;5086748;28;20027;-80
2023/04/19 01:06:18;;;;;;;21.27;13.47;;;;;;;9.01;82.34;102549.16;5094497;28;20495;-80
2023/04/19 01:08:44;;;;;;;21.87;13.00;;;;;;;9.02;82.63;102553.50;5092950;28;20103;-80
2023/04/19 01:11:09;;;;;;;22.83;14.00;;;;;;;8.94;82.62;102543.88;5094003;28;20114;-80
2023/04/19 01:13:34;;;;;;;22.23;13.67;;;;;;;8.94;82.93;102556.84;5093151;28;20035;-80
2023/04/19 01:16:00;;;;;;;24.60;14.57;;;;;;;8.98;82.85;102555.19;5093745;28;20162;-80
2023/04/19 01:18:31;;;;;;;22.60;13.87;;;;;;;8.98;83.32;102552.59;5093726;28;20024;-80
2023/04/19 01:21:00;;;;;;;22.40;14.38;;;;;;;8.95;83.37;102549.94;5092666;28;20035;-80
2023/04/19 01:23:25;;;;;;;22.20;13.73;;;;;;;8.99;83.63;102556.03;5088620;28;20516;-80
2023/04/19 01:25:51;;;;;;;22.20;13.63;;;;;;;8.99;83.67;102545.66;5093714;28;20031;-81
2023/04/19 01:28:16;;;;;;;22.50;14.20;;;;;;;8.99;83.73;102554.34;5093014;28;20086;-80
2023/04/19 01:30:41;;;;;;;20.93;12.70;;;;;;;8.98;83.93;102555.19;5093666;28;20034;-80
2023/04/19 01:33:07;;;;;;;23.37;13.97;;;;;;;8.97;84.01;102548.25;5093962;28;20039;-80
2023/04/19 01:35:32;;;;;;;22.83;13.90;;;;;;;8.99;84.36;102558.63;5092788;28;20070;-80
2023/04/19 01:37:58;;;;;;;22.17;13.17;;;;;;;9.01;84.23;102555.22;5089980;28;20021;-80
2023/04/19 01:40:24;;;;;;;23.30;13.60;;;;;;;9.00;84.76;102557.78;5072858;28;20028;-80
2023/04/19 01:42:50;;;;;;;23.60;13.95;;;;;;;8.98;84.74;102555.19;5072743;28;20024;-80
2023/04/19 01:45:18;;;;;;;23.17;13.97;;;;;;;9.00;84.43;102553.50;5073342;28;20025;-80
2023/04/19 01:47:43;;;;;;;21.83;13.15;;;;;;;8.98;85.08;102547.41;5072445;28;20035;-80
2023/04/19 01:50:09;;;;;;;24.43;14.13;;;;;;;9.02;85.12;102550.91;5072088;28;20119;-80
2023/04/19 01:52:37;;;;;;;24.90;14.90;;;;;;;9.01;85.25;102542.25;5072683;28;20033;-81
2023/04/19 01:55:06;;;;;;;23.42;14.52;;;;;;;9.05;85.42;102538.91;5072816;28;20475;-80
2023/04/19 01:57:31;;;;;;;22.10;13.52;;;;;;;9.07;85.52;102544.97;5072021;28;20397;-80
2023/04/19 01:59:56;;;;;;;23.50;13.80;;;;;;;9.09;85.62;102539.81;5074394;28;20029;-80
2023/04/19 02:02:21;;;;;;;24.73;14.73;;;;;;;9.12;85.78;102542.47;5072654;28;20037;-80
2023/04/19 02:04:47;;;;;;;21.30;12.70;;;;;;;9.15;85.28;102532.16;5072048;28;20031;-80
2023/04/19 02:07:12;;;;;;;23.57;14.57;;;;;;;9.16;85.75;102533.91;5073053;28;20522;-80
2023/04/19 02:09:37;;;;;;;22.53;12.90;;;;;;;9.21;85.66;102529.69;5072090;28;20028;-80
2023/04/19 02:12:03;;;;;;;23.73;14.03;;;;;;;9.23;85.88;102530.56;5072365;28;20020;-80
2023/04/19 02:14:29;;;;;;;23.47;14.53;;;;;;;9.23;85.88;102525.41;5072237;28;20029;-80
2023/04/19 02:16:54;;;;;;;25.07;14.33;;;;;;;9.29;86.00;102523.78;5072187;28;20038;-80
2023/04/19 02:19:19;;;;;;;24.47;14.30;;;;;;;9.26;85.80;102516.81;5072534;28;20044;-80
2023/04/19 02:21:45;;;;;;;22.57;13.80;;;;;;;9.35;85.67;102523.88;5072414;28;20457;-80
2023/04/19 02:24:10;;;;;;;22.50;13.53;;;;;;;9.36;85.76;102521.28;5071793;28;20041;-80
2023/04/19 02:26:35;;;;;;;22.60;14.30;;;;;;;9.33;85.48;102518.66;5072707;28;20090;-81
2023/04/19 02:29:01;;;;;;;25.90;14.60;;;;;;;9.33;85.84;102516.06;5073028;28;20028;-80
2023/04/19 02:31:26;;;;;;;23.17;14.07;;;;;;;9.41;85.86;102530.03;5071610;28;20033;-80
2023/04/19 02:33:51;;;;;;;22.33;13.43;;;;;;;9.45;85.94;102530.09;5072640;28;20025;-80
2023/04/19 02:36:17;;;;;;;24.17;15.20;;;;;;;9.43;85.92;102528.34;5088899;28;20073;-80
2023/04/19 02:38:42;;;;;;;23.77;14.43;;;;;;;9.40;85.79;102514.47;5091257;28;20047;-80
2023/04/19 02:41:07;;;;;;;22.50;13.50;;;;;;;9.45;85.93;102524.91;5086807;28;20029;-80
2023/04/19 02:43:32;;;;;;;24.13;14.67;;;;;;;9.42;86.22;102531.78;5072245;28;20024;-80
2023/04/19 02:45:58;;;;;;;24.13;14.27;;;;;;;9.39;86.32;102518.75;5071716;28;20029;-80
2023/04/19 02:48:23;;;;;;;24.33;14.43;;;;;;;9.38;86.61;102526.50;5072392;28;20112;-80
2023/04/19 02:50:48;;;;;;;23.03;13.90;;;;;;;9.38;86.62;102524.78;5078959;28;20032;-80
2023/04/19 02:53:14;;;;;;;22.83;14.23;;;;;;;9.37;86.81;102524.78;5071407;28;20028;-81
2023/04/19 02:55:39;;;;;;;23.13;14.37;;;;;;;9.34;86.81;102528.19;5073179;28;20040;-80
2023/04/19 02:58:05;;;;;;;23.40;13.93;;;;;;;9.27;86.77;102522.03;5072344;28;20024;-81
2023/04/19 03:00:30;;;;;;;24.07;14.40;;;;;;;9.31;87.05;102524.66;5071259;28;20024;-81
2023/04/19 03:02:55;;;;;;;23.00;14.10;;;;;;;9.26;87.12;102521.97;5079787;28;20109;-80
2023/04/19 03:05:22;;;;;;;22.63;13.80;;;;;;;9.28;87.50;102533.25;5091979;28;20114;-80
2023/04/19 03:07:47;;;;;;;23.45;14.23;;;;;;;9.22;87.49;102530.56;5091344;28;20058;-81
2023/04/19 03:10:12;;;;;;;22.83;13.93;;;;;;;9.17;87.47;102533.06;5092426;28;20027;-80
2023/04/19 03:12:38;;;;;;;22.93;13.10;;;;;;;9.11;87.67;102520.00;5092175;28;20024;-80
2023/04/19 03:15:03;;;;;;;23.70;13.70;;;;;;;9.10;87.69;102521.72;5091368;28;20019;-80
2023/04/19 03:17:29;;;;;;;22.43;13.17;;;;;;;9.10;87.75;102531.19;5091856;28;20024;-80
2023/04/19 03:19:55;;;;;;;21.73;12.47;;;;;;;9.10;87.75;102529.50;5092225;28;20032;-80
2023/04/19 03:22:20;;;;;;;22.50;12.95;;;;;;;9.09;87.75;102526.88;5092174;28;20113;-80
2023/04/19 03:24:45;;;;;;;21.80;12.70;;;;;;;9.05;87.95;102523.34;5095645;28;20028;-80
2023/04/19 03:27:13;;;;;;;21.90;12.83;;;;;;;9.04;87.99;102531.09;5086747;28;20120;-80
2023/04/19 03:29:39;;;;;;;21.20;12.38;;;;;;;9.05;88.22;102517.31;5075605;28;20250;-80
2023/04/19 03:32:04;;;;;;;21.93;12.60;;;;;;;9.00;88.22;102517.22;5075844;28;20028;-80
2023/04/19 03:34:29;;;;;;;22.27;12.33;;;;;;;9.00;88.17;102508.56;5074578;28;20024;-80
2023/04/19 03:36:55;;;;;;;21.87;13.00;;;;;;;8.98;88.48;102516.31;5075615;28;20389;-81
2023/04/19 03:39:20;;;;;;;22.10;12.93;;;;;;;8.99;88.49;102519.78;5075146;28;20029;-80
2023/04/19 03:41:51;;;;;;;21.27;12.37;;;;;;;8.98;88.13;102508.56;5074904;28;20048;-81
2023/04/19 03:44:16;;;;;;;22.50;12.52;;;;;;;8.98;88.47;102512.84;5075407;28;20028;-80
2023/04/19 03:46:42;;;;;;;21.93;12.90;;;;;;;8.93;88.37;102511.06;5090033;28;20023;-81
2023/04/19 03:49:07;;;;;;;22.17;12.80;;;;;;;8.92;88.32;102518.78;5094854;28;20024;-80
2023/04/19 03:51:32;;;;;;;23.63;12.87;;;;;;;8.90;88.18;102517.88;5094370;28;20089;-80
2023/04/19 03:53:57;;;;;;;22.47;12.80;;;;;;;8.95;88.34;102513.69;5095776;28;20028;-80
2023/04/19 03:56:23;;;;;;;22.40;12.70;;;;;;;8.91;88.40;102510.16;5094741;28;20119;-80
2023/04/19 03:58:51;;;;;;;22.47;13.03;;;;;;;8.90;88.14;102520.47;5095521;28;20050;-80
2023/04/19 04:01:18;;;;;;;21.88;12.50;;;;;;;8.86;88.04;102514.38;5095242;28;20035;-80
2023/04/19 04:03:43;;;;;;;22.15;13.35;;;;;;;8.88;87.95;102512.69;5094048;28;20433;-80
2023/04/19 04:06:08;;;;;;;21.57;12.53;;;;;;;8.90;87.92;102526.53;5095279;28;20102;-80
2023/04/19 04:08:34;;;;;;;22.33;12.10;;;;;;;8.87;87.89;102523.88;5095471;28;20044;-80
2023/04/19 04:10:59;;;;;;;22.47;12.43;;;;;;;8.89;87.85;102529.97;5094762;28;20054;-80
2023/04/19 04:13:24;;;;;;;22.63;12.23;;;;;;;8.85;87.64;102520.38;5094674;28;20475;-80
2023/04/19 04:15:49;;;;;;;20.60;11.67;;;;;;;8.86;87.82;102522.13;5095367;28;20070;-80
2023/04/19 04:18:15;;;;;;;21.63;12.23;;;;;;;8.83;87.61;102518.63;5094327;28;20038;-80
2023/04/19 04:20:42;;;;;;;21.27;12.70;;;;;;;8.81;87.62;102516.88;5094777;28;20070;-80
2023/04/19 04:23:09;;;;;;;;;;;;;;;8.80;87.55;102520.31;5095374;28;20044;-80
2023/04/19 04:25:36;;;;;;;21.48;11.70;;;;;;;8.78;87.80;102515.94;5093955;28;20340;-81
2023/04/19 04:28:05;;;;;;;20.90;11.43;;;;;;;8.75;87.70;102515.88;5095033;28;20031;-80
2023/04/19 04:30:32;;;;;;;20.65;11.63;;;;;;;8.62;87.41;102509.59;5093951;28;20418;-80
2023/04/19 04:32:58;;;;;;;19.75;10.32;;;;;;;8.69;87.49;102515.78;5094607;28;20031;-80
2023/04/19 04:35:23;;;;;;;19.27;10.40;;;;;;;8.67;87.55;102525.22;5094863;28;20032;-80
2023/04/19 04:37:48;;;;;;;20.20;10.80;;;;;;;8.58;87.43;102528.50;5079326;28;20392;-80
2023/04/19 04:40:14;;;;;;;19.77;11.43;;;;;;;8.52;87.51;102523.22;5074680;28;20032;-80
2023/04/19 04:42:44;;;;;;;20.57;11.10;;;;;;;8.53;87.55;102522.38;5074174;28;20517;-80
2023/04/19 04:45:10;;;;;;;20.38;10.38;;;;;;;8.50;87.43;102525.75;5073665;28;20434;-80
2023/04/19 04:47:35;;;;;;;19.58;10.32;;;;;;;8.42;87.23;102529.88;5073935;28;20049;-80
2023/04/19 04:50:02;;;;;;;19.40;10.40;;;;;;;8.37;86.94;102531.50;5074489;28;20502;-80
2023/04/19 04:52:28;;;;;;;20.30;9.95;;;;;;;8.28;86.86;102530.44;5073165;28;20036;-80
2023/04/19 04:54:53;;;;;;;19.13;9.53;;;;;;;8.26;86.53;102528.66;5074280;28;20040;-80
2023/04/19 04:57:21;;;;;;;17.90;9.33;;;;;;;8.21;86.57;102540.66;5074135;28;20082;-80
2023/04/19 04:59:47;;;;;;;18.02;9.35;;;;;;;8.17;86.48;102539.69;5073281;28;20039;-80
2023/04/19 05:02:13;;;;;;;18.17;9.50;;;;;;;8.15;86.50;102551.72;5073850;28;20111;-80
2023/04/19 05:04:39;;;;;;;18.27;9.60;;;;;;;8.10;86.55;102543.88;5073446;28;20503;-80
2023/04/19 05:07:04;;;;;;;16.83;8.70;;;;;;;8.11;86.52;102545.59;5073141;28;20048;-80
2023/04/19 05:09:29;;;;;;;17.67;8.82;;;;;;;8.05;86.38;102537.72;5073618;28;20031;-80
2023/04/19 05:11:55;;;;;;;17.50;8.87;;;;;;;8.05;86.45;102542.88;5073631;28;20029;-80
2023/04/19 05:14:20;;;;;;;18.90;9.07;;;;;;;8.01;86.88;102546.22;5072441;28;20124;-80
2023/04/19 05:16:45;;;;;;;17.90;8.83;;;;;;;8.01;86.80;102548.81;5073594;28;20426;-80
2023/04/19 05:19:10;;;;;;;19.37;9.47;;;;;;;8.00;86.69;102559.97;5073371;28;20024;-80
2023/04/19 05:21:36;;;;;;;20.00;10.20;;;;;;;8.00;86.63;102562.56;5072061;28;20512;-80
2023/04/19 05:24:01;;;;;;;17.73;9.37;;;;;;;7.98;86.93;102559.97;5076833;28;20035;-80
2023/04/19 05:26:27;;;;;;;18.93;9.23;;;;;;;8.02;86.57;102564.38;5093742;28;20016;-80
2023/04/19 05:28:52;;;;;;;17.30;8.40;;;;;;;8.02;86.74;102558.31;5093168;28;20028;-80
2023/04/19 05:31:19;;;;;;;18.97;9.30;;;;;;;7.99;86.72;102548.78;5093354;28;20024;-80
2023/04/19 05:33:45;;;;;;;16.92;8.48;;;;;;;8.03;86.54;102552.31;5092734;28;20504;-81
2023/04/19 05:36:10;;;;;;;18.30;9.00;;;;;;;7.99;86.28;102559.13;5093094;28;20107;-81
2023/04/19 05:38:35;;;;;;;18.73;10.07;;;;;;;7.95;86.09;102559.03;5093801;28;20051;-80
2023/04/19 05:41:02;;;;;;;17.83;9.40;;;;;;;7.95;86.37;102553.84;5092253;28;20527;-80
2023/04/19 05:43:27;;;;;;;17.65;9.20;;;;;;;7.90;86.04;102553.75;5093252;28;20028;-80
2023/04/19 05:45:52;;;;;;;18.93;9.67;;;;;;;7.86;86.12;102547.63;5092903;28;20024;-80
2023/04/19 05:48:18;;;;;;;17.17;9.00;;;;;;;7.88;86.01;102551.09;5092769;28;20515;-80
2023/04/19 05:50:43;;;;;;;17.80;8.80;;;;;;;7.86;86.04;102544.16;5093267;28;20024;-81
2023/04/19 05:53:08;;;;;;;17.93;9.23;;;;;;;7.87;85.61;102548.50;5089770;28;20484;-81
2023/04/19 05:55:33;;;;;;;17.38;8.45;;;;;;;7.86;85.24;102546.75;5092393;28;20044;-80
2023/04/19 05:57:59;;;;;;;17.60;8.70;;;;;;;7.81;84.93;102549.22;5092966;28;20024;-80
2023/04/19 06:00:25;;;;;;;17.63;9.03;;;;;;;7.79;84.92;102550.91;5093093;28;20047;-80
2023/04/19 06:02:50;;;;;;;17.17;8.57;;;;;;;7.80;85.06;102542.31;5092159;28;20454;-80
2023/04/19 06:05:15;;;;;;;16.70;8.53;;;;;;;7.84;83.85;102551.00;5093593;28;20024;-80
2023/04/19 06:07:43;;;;;;;16.80;8.38;;;;;;;7.87;84.49;102551.09;5092728;28;20369;-80
2023/04/19 06:10:09;;;;;;;16.15;8.02;;;;;;;7.95;83.71;102557.28;5092483;28;20077;-80
2023/04/19 06:12:34;;;;;;;15.20;7.70;;;;;;;8.01;83.97;102552.28;5092961;28;20028;-80
2023/04/19 06:15:00;;;;;;;15.40;7.90;;;;;;;8.10;81.49;102548.16;5092859;28;20028;-80
2023/04/19 06:17:25;;;;;;;15.80;7.80;;;;;;;8.23;81.79;102554.47;5091987;28;20024;-80
2023/04/19 06:19:51;;;;;;;15.97;7.90;;;;;;;8.31;81.53;102555.53;5093072;28;20047;-80
2023/04/19 06:22:16;;;;;;;15.65;7.93;;;;;;;8.41;79.14;102541.94;5092848;28;20485;-80
2023/04/19 06:24:48;;;;;;;16.70;8.00;;;;;;;8.50;77.31;102551.63;5091583;28;20119;-80
2023/04/19 06:27:15;;;;;;;16.35;7.97;;;;;;;8.57;76.56;102548.34;5092656;28;20028;-80
2023/04/19 06:29:40;;;;;;;;;;;;;;;8.64;73.84;102560.56;5093083;28;20031;-80
2023/04/19 06:32:06;;;;;;;13.43;6.97;;;;;;;8.63;73.65;102552.75;5091984;28;20272;-80
2023/04/19 06:34:31;;;;;;;14.70;7.40;;;;;;;8.70;73.72;102552.03;5092299;28;20099;-80
2023/04/19 06:36:56;;;;;;;16.23;7.93;;;;;;;8.72;72.87;102552.94;5092532;28;20036;-80
2023/04/19 06:39:22;;;;;;;15.57;7.50;;;;;;;8.85;71.87;102556.63;5076334;28;20063;-80
2023/04/19 06:41:47;;;;;;;16.07;7.90;;;;;;;8.83;70.35;102545.41;5092333;28;20605;-80
2023/04/19 06:44:12;;;;;;;15.70;7.40;;;;;;;8.87;70.77;102544.59;5091393;28;20017;-80
2023/04/19 06:46:44;;;;;;;13.23;6.60;;;;;;;8.92;71.30;102540.41;5092265;28;20426;-81
2023/04/19 06:49:12;;;;;;;14.52;7.40;;;;;;;8.95;69.40;102549.94;5090757;28;20073;-81
2023/04/19 06:51:41;;;;;;;16.92;7.78;;;;;;;8.89;68.71;102555.88;5071348;28;20086;-81
2023/04/19 06:54:06;;;;;;;15.07;7.40;;;;;;;8.93;68.54;102539.56;5072393;28;20108;-81
2023/04/19 06:56:41;;;;;;;15.33;7.50;;;;;;;8.94;68.18;102553.34;5073832;28;20044;-80
2023/04/19 06:59:06;;;;;;;15.48;7.25;;;;;;;8.95;66.93;102542.16;5075434;28;20029;-80
2023/04/19 07:01:40;;;;;;;14.13;7.35;;;;;;;8.93;66.83;102542.13;5075887;28;20123;-81
2023/04/19 07:04:06;;;;;;;17.30;7.45;;;;;;;8.95;66.13;102547.34;5076229;28;20031;-81
2023/04/19 07:06:32;;;;;;;14.20;7.40;;;;;;;9.17;65.97;102548.63;5075240;28;20054;-81
2023/04/19 07:08:57;;;;;;;14.37;7.27;;;;;;;10.42;62.94;102541.88;5075884;28;20097;-81
2023/04/19 07:11:23;;;;;;;15.47;7.07;;;;;;;12.22;56.57;102543.47;5075718;28;20511;-82
2023/04/19 07:13:49;;;;;;;14.00;6.70;;;;;;;12.52;53.34;102547.97;5075305;28;20020;-81
2023/04/19 07:16:17;;;;;;;13.93;6.80;;;;;;;12.59;52.02;102559.28;5075941;28;20064;-81
2023/04/19 07:18:42;;;;;;;13.63;6.53;;;;;;;12.24;53.36;102543.50;5075790;28;20086;-81
2023/04/19 07:21:08;;;;;;;14.30;7.10;;;;;;;11.48;54.62;102553.38;5075025;28;20354;-81
2023/04/19 07:23:33;;;;;;;13.10;6.53;;;;;;;11.26;55.76;102546.25;5075283;28;20083;-80
2023/04/19 07:25:59;;;;;;;13.30;7.20;;;;;;;10.44;56.23;102557.47;5075851;28;20040;-80
2023/04/19 07:28:24;;;;;;;12.87;7.00;;;;;;;10.09;58.21;102550.06;5074418;28;20020;-81
2023/04/19 07:30:49;;;;;;;12.73;6.50;;;;;;;9.94;60.25;102551.56;5075703;28;20362;-81
2023/04/19 07:33:14;;;;;;;13.80;6.50;;;;;;;9.86;60.13;102542.81;5074872;28;20025;-81
2023/04/19 07:35:40;;;;;;;15.33;7.17;;;;;;;9.68;59.57;102551.19;5075671;28;20016;-80
2023/04/19 07:38:05;;;;;;;13.97;6.80;;;;;;;9.74;60.43;102548.66;5075370;28;20036;-80
2023/04/19 07:40:33;;;;;;;14.33;6.80;;;;;;;9.82;59.06;102556.56;5074440;28;20101;-80
2023/04/19 07:42:58;;;;;;;15.77;6.90;;;;;;;9.78;59.14;102550.47;5075566;28;20392;-80
2023/04/19 07:45:23;;;;;;;14.97;7.50;;;;;;;9.77;60.39;102530.56;5073689;28;20037;-81
2023/04/19 07:47:49;;;;;;;14.47;7.20;;;;;;;10.01;59.96;102552.53;5074834;28;20020;-81
2023/04/19 07:50:14;;;;;;;15.23;7.30;;;;;;;10.08;59.48;102540.53;5075106;28;20480;-81
2023/04/19 07:52:40;;;;;;;15.70;6.97;;;;;;;9.98;58.49;102532.63;5075087;28;20029;-81
2023/04/19 07:55:06;;;;;;;12.47;6.60;;;;;;;10.05;58.93;102537.03;5074393;28;20036;-81
2023/04/19 07:57:31;;;;;;;13.20;6.33;;;;;;;10.21;59.66;102550.25;5075072;28;20480;-81
2023/04/19 08:00:00;;;;;;;13.27;6.60;;;;;;;10.32;58.75;102551.25;5075325;28;20472;-80
2023/04/19 08:02:26;;;;;;;13.35;6.80;;;;;;;10.40;57.89;102532.34;5074024;28;20035;-81
2023/04/19 08:04:52;;;;;;;13.53;6.93;;;;;;;10.42;57.38;102541.00;5074809;28;20020;-81
2023/04/19 08:07:24;;;;;;;14.23;6.83;;;;;;;10.39;57.03;102533.19;5074775;28;20445;-81
2023/04/19 08:09:53;;;;;;;14.90;6.60;;;;;;;10.34;56.84;102536.56;5073979;28;20115;-80
2023/04/19 08:12:18;;;;;;;14.32;7.20;;;;;;;10.49;56.23;102533.31;5075279;28;20380;-81
2023/04/19 08:14:43;;;;;;;14.37;6.60;;;;;;;10.61;56.39;102536.94;5074569;28;20029;-80
2023/04/19 08:17:09;;;;;;;13.30;6.60;;;;;;;10.62;55.13;102539.53;5074281;28;20496;-81
2023/04/19 08:19:34;;;;;;;15.27;7.23;;;;;;;10.65;55.20;102534.38;5074685;28;20026;-81
2023/04/19 08:21:59;;;;;;;13.30;6.60;;;;;;;10.70;55.33;102534.44;5074518;28;20477;-81
2023/04/19 08:24:25;;;;;;;12.90;6.10;;;;;;;10.78;53.93;102537.97;5073349;28;20125;-81
2023/04/19 08:26:53;;;;;;;13.07;6.77;;;;;;;10.78;54.11;102530.19;5074810;28;20033;-81
2023/04/19 08:29:24;;;;;;;13.18;6.22;;;;;;;10.90;54.18;102532.06;5074815;28;20389;-81
2023/04/19 08:31:50;;;;;;;13.63;6.50;;;;;;;11.06;53.34;102529.59;5073021;28;20040;-81
2023/04/19 08:34:15;;;;;;;12.70;6.67;;;;;;;11.00;51.70;102533.00;5074779;28;20430;-81
2023/04/19 08:36:40;;;;;;;14.63;7.40;;;;;;;11.14;51.05;102530.56;5073599;28;20028;-81
2023/04/19 08:39:05;;;;;;;14.63;6.83;;;;;;;11.24;51.96;102541.91;5074251;28;20047;-81
2023/04/19 08:41:31;;;;;;;13.47;6.67;;;;;;;11.09;50.13;102527.88;5074043;28;20043;-81
2023/04/19 08:43:57;;;;;;;14.37;6.60;;;;;;;11.22;50.36;102525.41;5073572;28;20024;-81
2023/04/19 08:46:23;;;;;;;12.93;6.13;;;;;;;11.30;49.99;102528.09;5074001;28;20028;-81
2023/04/19 08:48:49;;;;;;;12.88;6.32;;;;;;;11.38;49.51;102534.22;5074214;28;20017;-81
2023/04/19 08:51:16;;;;;;;12.40;6.03;;;;;;;11.49;49.65;102523.91;5073232;28;20037;-81
2023/04/19 08:53:42;;;;;;;11.98;5.93;;;;;;;11.62;48.85;102524.88;5073943;28;20169;-81
2023/04/19 08:56:09;;;;;;;12.45;5.93;;;;;;;11.49;48.53;102527.38;5074172;28;20051;-81
2023/04/19 08:58:34;;;;;;;10.45;5.30;;;;;;;11.63;48.61;102521.41;5072593;28;20503;-81
2023/04/19 09:01:02;;;;;;;10.33;5.07;;;;;;;11.88;49.87;102525.03;5074177;28;20028;-81
2023/04/19 09:03:28;;;;;;;10.98;5.32;;;;;;;11.96;47.27;102530.28;5073799;28;20033;-81
2023/04/19 09:05:53;;;;;;;11.40;5.40;;;;;;;11.79;47.58;102518.06;5073169;28;20069;-81
2023/04/19 09:08:24;;;;;;;9.63;5.07;;;;;;;11.72;47.43;102524.97;5073915;28;20012;-81
2023/04/19 09:10:57;;;;;;;9.40;5.03;;;;;;;11.86;46.55;102521.59;5073623;28;20028;-80
2023/04/19 09:13:23;;;;;;;8.80;4.85;;;;;;;11.95;46.25;102529.44;5072699;28;20149;-81
2023/04/19 09:15:52;;;;;;;11.27;4.80;;;;;;;11.96;46.30;102522.50;5073470;28;20530;-81
2023/04/19 09:18:18;;;;;;;8.98;4.93;;;;;;;11.97;45.32;102527.72;5073455;28;20107;-81
2023/04/19 09:20:44;;;;;;;9.95;4.88;;;;;;;12.07;44.55;102523.44;5071387;28;20103;-81
2023/04/19 09:23:13;;;;;;;7.80;4.60;;;;;;;12.11;45.54;102522.63;5073272;28;20120;-81
2023/04/19 09:25:40;;;;;;;8.13;4.18;;;;;;;12.05;45.72;102514.75;5074218;28;20107;-82
2023/04/19 09:28:12;;;;;;;8.27;4.53;;;;;;;12.16;44.38;102525.25;5074324;28;20039;-80
2023/04/19 09:30:38;;;;;;;10.13;4.55;;;;;;;12.12;42.83;102531.28;5076000;28;20029;-80
2023/04/19 09:33:03;;;;;;;9.68;4.70;;;;;;;12.04;43.33;102529.53;5092826;28;20039;-80
2023/04/19 09:35:38;;;;;;;11.23;4.60;;;;;;;12.05;43.80;102530.38;5093081;28;20016;-81
2023/04/19 09:38:04;;;;;;;10.40;4.50;;;;;;;12.19;43.29;102512.25;5073511;28;20374;-80
2023/04/19 09:40:29;;;;;;;6.43;4.00;;;;;;;12.42;44.62;102519.28;5072552;28;20020;-80
2023/04/19 09:42:55;;;;;;;10.40;4.50;;;;;;;12.12;43.94;102537.38;5072730;28;20509;-80
2023/04/19 09:45:20;;;;;;;9.70;4.37;;;;;;;12.12;44.40;102532.16;5072962;28;20029;-80
2023/04/19 09:47:59;;;;;;;7.50;4.53;;;;;;;12.10;45.27;102504.41;5074806;28;20025;-80
2023/04/19 09:50:25;;;;;;;8.50;4.60;;;;;;;12.20;44.75;102527.88;5092873;28;20081;-80
2023/04/19 09:52:51;;;;;;;8.10;4.60;;;;;;;12.10;45.13;102525.22;5093327;28;20032;-80
2023/04/19 09:55:18;;;;;;;10.02;4.68;;;;;;;12.21;44.97;102507.94;5092182;28;20028;-80
2023/04/19 09:57:43;;;;;;;9.43;4.40;;;;;;;12.44;45.71;102502.81;5093098;28;20058;-81
2023/04/19 10:00:12;;;;;;;8.50;4.40;;;;;;;12.76;43.60;102516.78;5091238;28;20103;-80
2023/04/19 10:02:40;;;;;;;7.82;4.32;;;;;;;12.51;42.14;102507.16;5090895;28;20028;-80
2023/04/19 10:05:10;;;;;;;8.93;4.30;;;;;;;12.60;41.57;102505.47;5093045;28;20540;-81
2023/04/19 10:07:36;;;;;;;9.07;4.22;;;;;;;12.79;42.45;102517.66;5092894;28;20035;-80
2023/04/19 10:10:02;;;;;;;7.50;4.50;;;;;;;12.24;42.34;102507.91;5091910;28;20024;-80
2023/04/19 10:12:30;;;;;;;10.73;4.40;;;;;;;12.31;41.00;102512.31;5092054;28;20042;-80
2023/04/19 10:14:58;;;;;;;6.78;3.67;;;;;;;12.34;40.05;102524.47;5093108;28;20308;-80
2023/04/19 10:17:24;;;;;;;8.30;3.70;;;;;;;12.26;41.68;102501.00;5092537;28;20020;-80
2023/04/19 10:20:17;;;;;;;7.68;3.58;;;;;;;12.25;38.93;102501.00;5092741;28;20468;-80
2023/04/19 10:22:46;;;;;;;7.07;3.28;;;;;;;12.36;39.92;102505.38;5086624;28;20044;-80
2023/04/19 10:25:14;;;;;;;5.40;3.38;;;;;;;12.67;39.73;102502.00;5091045;28;20107;-80
2023/04/19 10:27:44;;;;;;;5.63;2.90;;;;;;;12.70;38.96;102504.63;5092188;28;20506;-80
2023/04/19 10:30:23;;;;;;;5.38;3.10;;;;;;;12.95;39.31;102502.94;5091973;28;20111;-80
2023/04/19 10:32:55;;;;;;;6.63;3.20;;;;;;;12.86;38.84;102504.63;5093133;28;20024;-80
2023/04/19 10:35:25;;;;;;;5.35;2.95;;;;;;;12.54;37.99;102508.91;5080868;28;20032;-80
2023/04/19 10:38:15;;;;;;;4.70;3.00;;;;;;;12.41;38.47;102499.31;5072617;28;20028;-80
2023/04/19 10:40:54;;;;;;;5.68;2.80;;;;;;;12.43;36.67;102514.06;5072202;28;20493;-80
2023/04/19 10:43:24;;;;;;;4.80;2.72;;;;;;;12.35;37.21;102495.81;5071373;28;20020;-80
2023/04/19 10:45:50;;;;;;;6.60;2.83;;;;;;;12.49;38.09;102500.22;5072744;28;20052;-82
2023/04/19 10:48:37;;;;;;;5.93;3.00;;;;;;;12.50;37.22;102491.53;5073334;28;20025;-80
2023/04/19 10:51:14;;;;;;;5.18;2.78;;;;;;;12.77;38.75;102482.91;5071728;28;20079;-79
2023/04/19 10:53:53;;;;;;;4.15;2.72;;;;;;;12.92;37.05;102484.66;5073077;28;20028;-79
2023/04/19 10:56:33;;;;;;;5.13;2.80;;;;;;;12.87;37.88;102501.16;5072331;28;20051;-81
2023/04/19 11:01:54;;;;;;;3.13;2.50;;;;;;;13.02;35.37;102485.56;5072113;28;20029;-82
2023/04/19 11:04:32;;;;;;;4.82;2.60;;;;;;;12.42;35.30;102494.09;5068208;28;20032;-81
2023/04/19 11:07:06;;;;;;;4.20;2.50;;;;;;;12.64;35.08;102479.44;5072060;28;20051;-82
2023/04/19 11:09:41;;;;;;;3.88;2.50;;;;;;;12.72;35.48;102496.81;5089791;28;20043;-81
2023/04/19 11:12:09;;;;;;;4.95;2.78;;;;;;;12.29;36.70;102494.91;5091597;28;20035;-82
2023/04/19 11:14:40;;;;;;;5.72;2.95;;;;;;;12.54;36.90;102480.28;5091993;28;20035;-83
2023/04/19 11:17:19;;;;;;;7.22;3.10;;;;;;;12.41;36.84;102479.34;5092008;28;20472;-83
2023/04/19 11:19:55;;;;;;;4.35;2.83;;;;;;;12.46;37.17;102472.44;5091620;28;20035;-83
2023/04/19 11:22:34;;;;;;;4.35;2.90;;;;;;;12.88;36.80;102469.91;5091954;28;20036;-83